MSC Flavia — 3FBD7 — position and weather

sailwx.info

Track history (hours):
 
Tides and Currents Weather Stations Pressure Air Temp Water Temp Dewpoint Dewpoint Depression Visibility Wind Speed Wind Dir Waves Ship Positions

MSC Flavia

Last reported at 2015-Jun-29 00:30 UTC. Time now 2015-Jun-30 14:32 UTC.
Position N 01°09' E 103°45'.

Length 366 m; draft 14 m.

Type: Ship (hazmat cat A). MMSI: 373004000.

Date/timePositionNaut miles runAvg speedWind from/ knotsBaromVisibWave heightAir tempDewpointWater temp
2015-Jun-29 00:30N 01°09' E 103°45'1111.3
2015-Jun-28 23:34N 01°13' E 103°55'1312.5
2015-Jun-28 22:33N 01°16' E 104°07'  
2015-Jun-25 14:22N 22°11' E 114°28'2511.2
2015-Jun-25 12:07N 22°34' E 114°16'0 0.0
2015-Jun-24 20:27N 22°34' E 114°16'25 8.3
2015-Jun-24 17:29N 22°12' E 114°29'36 8.2
2015-Jun-24 13:08N 22°07' E 113°51'813.3
2015-Jun-24 12:33N 22°15' E 113°48'1212.4
2015-Jun-24 11:33N 22°27' E 113°45'1212.2
2015-Jun-24 10:32N 22°39' E 113°41'1 0.1
2015-Jun-23 19:32N 22°38' E 113°42'812.5
2015-Jun-23 18:52N 22°30' E 113°45'26211.1
2015-Jun-22 19:18N 24°27' E 118°00'0 0.0
2015-Jun-22 18:24N 24°27' E 118°00'0 0.0
2015-Jun-22 17:30N 24°27' E 118°00'0 0.0
2015-Jun-22 16:30N 24°27' E 118°00'0 0.0
2015-Jun-22 14:18N 24°27' E 118°00'0 0.0
2015-Jun-22 12:30N 24°27' E 118°00'0 0.0
2015-Jun-22 10:24N 24°27' E 118°00'0 0.0
2015-Jun-22 09:12N 24°27' E 118°00'0 0.0
2015-Jun-22 08:31N 24°27' E 118°00'6 6.1
2015-Jun-22 07:33N 24°24' E 118°06'1010.4
2015-Jun-22 06:34N 24°17' E 118°14'1414.1
2015-Jun-22 05:33N 24°14' E 118°29'4020.1
2015-Jun-22 03:34N 24°35' E 119°06'33819.7
2015-Jun-21 10:24N 29°19' E 122°32'1921.5
2015-Jun-21 09:31N 29°38' E 122°34'1616.7
2015-Jun-21 08:33N 29°46' E 122°17'1212.6
2015-Jun-21 07:33N 29°55' E 122°08'5 5.2
2015-Jun-21 06:33N 29°54' E 122°02'0 0.0
2015-Jun-21 05:18N 29°54' E 122°02'0 0.0
2015-Jun-21 04:30N 29°54' E 122°02'0 0.0
2015-Jun-21 03:18N 29°54' E 122°02'0 0.0
2015-Jun-21 02:24N 29°54' E 122°02'0 0.0
2015-Jun-21 00:30N 29°54' E 122°02'0 0.0
2015-Jun-20 23:12N 29°54' E 122°02'0 0.0
2015-Jun-20 22:24N 29°54' E 122°02'0 0.0
2015-Jun-20 21:24N 29°54' E 122°02'0 0.0
2015-Jun-20 20:24N 29°54' E 122°02'0 0.0
2015-Jun-20 18:30N 29°54' E 122°02'0 0.0
2015-Jun-20 17:24N 29°54' E 122°02'0 0.0
2015-Jun-20 15:30N 29°54' E 122°02'0 0.0
2015-Jun-20 14:24N 29°54' E 122°02'0 0.0
2015-Jun-20 13:18N 29°54' E 122°02'0 0.0
2015-Jun-20 12:24N 29°54' E 122°02'0 0.0
2015-Jun-20 11:30N 29°54' E 122°02'0 0.0
2015-Jun-20 10:24N 29°54' E 122°02'0 0.0
2015-Jun-20 07:24N 29°54' E 122°02'0 0.0
2015-Jun-20 06:33N 29°54' E 122°02'6 5.9
2015-Jun-20 05:33N 29°55' E 122°09'1312.4
2015-Jun-20 04:32N 29°46' E 122°18'1515.3
2015-Jun-20 03:33N 29°46' E 122°36'4414.2
2015-Jun-20 00:28N 30°30' E 122°36'1718.5
2015-Jun-19 23:33N 30°33' E 122°18'1413.6
2015-Jun-19 22:33N 30°38' E 122°03'0 0.1
2015-Jun-19 20:16N 30°38' E 122°03'0 0.0
2015-Jun-19 14:10N 30°38' E 122°03'0 0.0
2015-Jun-19 07:16N 30°38' E 122°03'0 0.4
2015-Jun-19 06:34N 30°38' E 122°03'9 8.6
2015-Jun-19 05:30N 30°34' E 122°12'9 9.1
2015-Jun-19 04:32N 30°33' E 122°23'8 7.4
2015-Jun-19 03:25N 30°32' E 122°32'9 8.3
2015-Jun-19 02:17N 30°30' E 122°43'811.1
2015-Jun-19 01:32N 30°30' E 122°52'  
Track history (hours):
 
Tides and Currents Weather Stations Pressure Air Temp Water Temp Dewpoint Dewpoint Depression Visibility Wind Speed Wind Dir Waves Ship Positions

MSC Flavia

Last reported at 2015-Jun-29 00:30 UTC. Time now 2015-Jun-30 14:32 UTC.
Position N 01°09' E 103°45'.

Length 366 m; draft 14 m.

Type: Ship (hazmat cat A). MMSI: 373004000.

Date/timePositionNaut miles runAvg speedWind from/ knotsBaromVisibWave heightAir tempDewpointWater temp
2015-Jun-29 00:30N 01°09' E 103°45'1111.3
2015-Jun-28 23:34N 01°13' E 103°55'1312.5
2015-Jun-28 22:33N 01°16' E 104°07'  
2015-Jun-25 14:22N 22°11' E 114°28'2511.2
2015-Jun-25 12:07N 22°34' E 114°16'0 0.0
2015-Jun-24 20:27N 22°34' E 114°16'25 8.3
2015-Jun-24 17:29N 22°12' E 114°29'36 8.2
2015-Jun-24 13:08N 22°07' E 113°51'813.3
2015-Jun-24 12:33N 22°15' E 113°48'1212.4
2015-Jun-24 11:33N 22°27' E 113°45'1212.2
2015-Jun-24 10:32N 22°39' E 113°41'1 0.1
2015-Jun-23 19:32N 22°38' E 113°42'812.5
2015-Jun-23 18:52N 22°30' E 113°45'26211.1
2015-Jun-22 19:18N 24°27' E 118°00'0 0.0
2015-Jun-22 18:24N 24°27' E 118°00'0 0.0
2015-Jun-22 17:30N 24°27' E 118°00'0 0.0
2015-Jun-22 16:30N 24°27' E 118°00'0 0.0
2015-Jun-22 14:18N 24°27' E 118°00'0 0.0
2015-Jun-22 12:30N 24°27' E 118°00'0 0.0
2015-Jun-22 10:24N 24°27' E 118°00'0 0.0
2015-Jun-22 09:12N 24°27' E 118°00'0 0.0
2015-Jun-22 08:31N 24°27' E 118°00'6 6.1
2015-Jun-22 07:33N 24°24' E 118°06'1010.4
2015-Jun-22 06:34N 24°17' E 118°14'1414.1
2015-Jun-22 05:33N 24°14' E 118°29'4020.1
2015-Jun-22 03:34N 24°35' E 119°06'33819.7
2015-Jun-21 10:24N 29°19' E 122°32'1921.5
2015-Jun-21 09:31N 29°38' E 122°34'1616.7
2015-Jun-21 08:33N 29°46' E 122°17'1212.6
2015-Jun-21 07:33N 29°55' E 122°08'5 5.2
2015-Jun-21 06:33N 29°54' E 122°02'0 0.0
2015-Jun-21 05:18N 29°54' E 122°02'0 0.0
2015-Jun-21 04:30N 29°54' E 122°02'0 0.0
2015-Jun-21 03:18N 29°54' E 122°02'0 0.0
2015-Jun-21 02:24N 29°54' E 122°02'0 0.0
2015-Jun-21 00:30N 29°54' E 122°02'0 0.0
2015-Jun-20 23:12N 29°54' E 122°02'0 0.0
2015-Jun-20 22:24N 29°54' E 122°02'0 0.0
2015-Jun-20 21:24N 29°54' E 122°02'0 0.0
2015-Jun-20 20:24N 29°54' E 122°02'0 0.0
2015-Jun-20 18:30N 29°54' E 122°02'0 0.0
2015-Jun-20 17:24N 29°54' E 122°02'0 0.0
2015-Jun-20 15:30N 29°54' E 122°02'0 0.0
2015-Jun-20 14:24N 29°54' E 122°02'0 0.0
2015-Jun-20 13:18N 29°54' E 122°02'0 0.0
2015-Jun-20 12:24N 29°54' E 122°02'0 0.0
2015-Jun-20 11:30N 29°54' E 122°02'0 0.0
2015-Jun-20 10:24N 29°54' E 122°02'0 0.0
2015-Jun-20 07:24N 29°54' E 122°02'0 0.0
2015-Jun-20 06:33N 29°54' E 122°02'6 5.9
2015-Jun-20 05:33N 29°55' E 122°09'1312.4
2015-Jun-20 04:32N 29°46' E 122°18'1515.3
2015-Jun-20 03:33N 29°46' E 122°36'4414.2
2015-Jun-20 00:28N 30°30' E 122°36'1718.5
2015-Jun-19 23:33N 30°33' E 122°18'1413.6
2015-Jun-19 22:33N 30°38' E 122°03'0 0.1
2015-Jun-19 20:16N 30°38' E 122°03'0 0.0
2015-Jun-19 14:10N 30°38' E 122°03'0 0.0
2015-Jun-19 07:16N 30°38' E 122°03'0 0.4
2015-Jun-19 06:34N 30°38' E 122°03'9 8.6
2015-Jun-19 05:30N 30°34' E 122°12'9 9.1
2015-Jun-19 04:32N 30°33' E 122°23'8 7.4
2015-Jun-19 03:25N 30°32' E 122°32'9 8.3
2015-Jun-19 02:17N 30°30' E 122°43'811.1
2015-Jun-19 01:32N 30°30' E 122°52'  

Dump ship's entire track history